Time;durP1;ratioP1;P1;durP2;ratioP2;P2;SDS_P1;SDS_P2;PMS_P1;PMS_P2;Temp;Humidity;BMP_temperature;BMP_pressure;BME280_temperature;BME280_humidity;BME280_pressure;Samples;Min_cycle;Max_cycle;Signal;HPM_P1;HPM_P2
2022/09/27 00:01:00;;;;;;;18.17;16.50;;;;;;;21.43;46.44;94139.44;6153370;28;103857;-79
2022/09/27 00:04:04;;;;;;;17.93;16.33;;;;;;;21.45;46.08;94152.44;6165469;28;104342;-80
2022/09/27 00:07:09;;;;;;;16.90;15.50;;;;;;;21.34;45.99;94141.41;6151731;28;107745;-81
2022/09/27 00:10:13;;;;;;;17.77;16.27;;;;;;;21.42;46.53;94137.09;6158239;28;106735;-80
2022/09/27 00:13:16;;;;;;;16.33;14.93;;;;;;;21.42;47.05;94142.44;6161798;28;104613;-82
2022/09/27 00:16:21;;;;;;;17.83;16.27;;;;;;;21.39;46.52;94127.91;6159322;28;106283;-80
2022/09/27 00:19:24;;;;;;;17.20;15.80;;;;;;;21.39;46.57;94119.13;6155916;28;103936;-79
2022/09/27 00:22:30;;;;;;;16.17;14.77;;;;;;;21.39;46.64;94132.44;6160191;28;104621;-81
2022/09/27 00:25:33;;;;;;;16.07;14.77;;;;;;;21.41;46.83;94146.97;6141521;28;104038;-79
2022/09/27 00:28:36;;;;;;;17.27;15.87;;;;;;;21.37;46.98;94143.41;6134533;28;103980;-79
2022/09/27 00:31:41;;;;;;;16.13;14.83;;;;;;;21.37;46.94;94138.09;6158981;28;103385;-80
2022/09/27 00:34:45;;;;;;;15.93;14.63;;;;;;;21.39;46.70;94138.53;6162866;28;104486;-80
2022/09/27 00:37:48;;;;;;;16.47;15.07;;;;;;;21.40;46.70;94149.97;6164473;28;103496;-80
2022/09/27 00:40:51;;;;;;;15.27;14.07;;;;;;;21.39;46.81;94149.19;6151899;28;104401;-78
2022/09/27 00:43:56;;;;;;;16.13;14.83;;;;;;;21.38;46.53;94152.94;6161475;28;106441;-80
2022/09/27 00:47:05;;;;;;;16.33;15.00;;;;;;;21.39;46.84;94149.19;6164785;28;103731;-80
2022/09/27 00:50:18;;;;;;;14.60;13.40;;;;;;;21.33;46.64;94152.34;6165600;28;103058;-80
2022/09/27 00:53:27;;;;;;;16.07;14.77;;;;;;;21.40;46.71;94160.63;6162272;28;103116;-82
2022/09/27 00:56:32;;;;;;;15.00;13.90;;;;;;;21.36;46.98;94149.84;6165699;28;104130;-79
2022/09/27 00:59:38;;;;;;;16.20;14.87;;;;;;;21.37;46.74;94146.06;6164640;28;104174;-80
2022/09/27 01:02:47;;;;;;;15.30;13.90;;;;;;;21.37;47.10;94140.75;6156539;28;104138;-81
2022/09/27 01:05:51;;;;;;;15.40;14.13;;;;;;;21.37;46.58;94146.06;6143569;28;105224;-82
2022/09/27 01:08:54;;;;;;;15.07;13.83;;;;;;;21.38;46.58;94133.53;6152400;28;104254;-80
2022/09/27 01:12:05;;;;;;;15.63;14.30;;;;;;;21.36;47.17;94133.88;6147302;28;104141;-81
2022/09/27 01:15:16;;;;;;;16.10;14.77;;;;;;;21.36;47.07;94114.47;6143666;28;105633;-81
2022/09/27 01:18:33;;;;;;;15.70;14.30;;;;;;;21.34;46.90;94122.78;6144778;28;103454;-80
2022/09/27 01:21:47;;;;;;;15.10;13.90;;;;;;;21.33;46.64;94123.84;6154629;28;107371;-81
2022/09/27 01:25:09;;;;;;;15.93;14.63;;;;;;;21.36;47.22;94106.47;6150190;28;103946;-79
2022/09/27 01:28:23;;;;;;;15.60;14.23;;;;;;;21.35;47.36;94132.31;6145760;28;103031;-78
2022/09/27 01:31:34;;;;;;;16.70;15.20;;;;;;;21.36;46.96;94112.56;6161156;28;104287;-77
2022/09/27 01:34:48;;;;;;;16.30;15.00;;;;;;;21.34;47.04;94113.97;6153974;28;103416;-78
2022/09/27 01:37:58;;;;;;;15.83;14.63;;;;;;;21.32;46.92;94119.63;6140708;28;106040;-79
2022/09/27 01:41:07;;;;;;;16.63;15.23;;;;;;;21.32;47.01;94093.00;6180074;28;103319;-77
2022/09/27 01:44:22;;;;;;;16.70;15.40;;;;;;;21.34;46.70;94106.00;6157519;28;103806;-78
2022/09/27 01:47:32;;;;;;;17.23;15.83;;;;;;;21.37;46.87;94100.06;6164809;28;106777;-77
2022/09/27 01:50:39;;;;;;;16.57;15.07;;;;;;;21.36;46.85;94111.81;6162923;28;104242;-77
2022/09/27 01:53:47;;;;;;;16.20;14.80;;;;;;;21.33;47.24;94113.19;6165554;28;106950;-77
2022/09/27 01:56:54;;;;;;;16.03;14.73;;;;;;;21.33;47.28;94099.13;6166829;28;102925;-77
2022/09/27 02:00:05;;;;;;;16.07;14.63;;;;;;;21.33;47.20;94089.25;6160527;28;103583;-76
2022/09/27 02:03:13;;;;;;;15.83;14.63;;;;;;;21.32;47.63;94108.97;6166857;28;104128;-76
2022/09/27 02:06:21;;;;;;;15.67;14.37;;;;;;;21.33;47.33;94099.91;6178170;28;103558;-76
2022/09/27 02:09:31;;;;;;;16.30;14.90;;;;;;;21.30;47.20;94095.22;6164010;28;107094;-78
2022/09/27 02:12:40;;;;;;;16.83;15.33;;;;;;;21.35;46.78;94089.72;6159246;28;104090;-78
2022/09/27 02:15:52;;;;;;;17.13;15.67;;;;;;;21.33;47.12;94077.81;6165109;28;103683;-77
2022/09/27 02:19:08;;;;;;;16.30;14.90;;;;;;;21.32;47.23;94086.91;6154352;28;104553;-76
2022/09/27 02:22:17;;;;;;;15.50;14.30;;;;;;;21.32;47.32;94068.28;6160985;28;103526;-79
2022/09/27 02:25:25;;;;;;;16.07;14.57;;;;;;;21.31;47.04;94088.03;6163623;28;103230;-77
2022/09/27 02:28:32;;;;;;;16.10;14.80;;;;;;;21.30;47.13;94062.50;6147630;28;103689;-76
2022/09/27 02:31:35;;;;;;;16.17;14.67;;;;;;;21.32;47.27;94047.00;6161817;28;103333;-76
2022/09/27 02:34:41;;;;;;;16.17;14.70;;;;;;;21.29;47.38;94056.41;6156691;28;104985;-78
2022/09/27 02:37:45;;;;;;;16.50;15.10;;;;;;;21.30;46.97;94041.22;6162563;28;104238;-76
2022/09/27 02:40:48;;;;;;;15.17;13.97;;;;;;;21.29;47.43;94021.81;6151080;28;103371;-76
2022/09/27 02:43:55;;;;;;;16.37;14.90;;;;;;;21.30;47.14;93996.78;6142191;28;106083;-77
2022/09/27 02:47:19;;;;;;;16.60;15.20;;;;;;;21.27;47.20;94002.75;6135176;28;103555;-77
2022/09/27 02:50:47;;;;;;;16.80;15.40;;;;;;;21.28;47.20;94020.28;6142099;28;103349;-77
2022/09/27 02:54:03;;;;;;;15.43;14.13;;;;;;;21.27;47.60;94018.72;6140780;28;103633;-78
2022/09/27 02:57:19;;;;;;;15.80;14.40;;;;;;;21.29;47.50;94026.38;6159387;28;103075;-77
2022/09/27 03:00:28;;;;;;;15.33;13.93;;;;;;;21.21;47.49;94020.03;6164932;28;103545;-79
2022/09/27 03:03:39;;;;;;;15.97;14.57;;;;;;;21.23;47.43;94006.41;6165769;28;106478;-78
2022/09/27 03:06:47;;;;;;;14.93;13.70;;;;;;;21.32;47.43;94026.50;6163115;28;104144;-77
2022/09/27 03:09:52;;;;;;;14.33;13.13;;;;;;;21.34;46.85;94023.50;6156811;28;103488;-77
2022/09/27 03:12:57;;;;;;;14.90;13.50;;;;;;;21.32;47.65;93997.22;6166133;28;106426;-78
2022/09/27 03:16:01;;;;;;;13.80;12.60;;;;;;;21.30;46.98;93980.81;6164679;28;103724;-77
2022/09/27 03:19:04;;;;;;;12.73;11.67;;;;;;;21.32;47.59;93961.84;6163028;28;103660;-78
2022/09/27 03:22:09;;;;;;;14.00;12.80;;;;;;;21.36;47.25;93976.84;6161592;28;104739;-78
2022/09/27 03:25:12;;;;;;;13.33;12.13;;;;;;;21.37;47.20;93973.09;6165452;28;103088;-77
2022/09/27 03:28:16;;;;;;;12.43;11.33;;;;;;;21.35;46.65;93959.34;6165186;28;103729;-82
2022/09/27 03:31:19;;;;;;;13.50;12.40;;;;;;;21.38;46.63;93964.00;6158634;28;104097;-81
2022/09/27 03:34:23;;;;;;;13.67;12.37;;;;;;;21.41;46.59;93965.22;6164751;28;103557;-77
2022/09/27 03:37:28;;;;;;;13.20;12.00;;;;;;;21.40;46.67;93974.31;6161568;28;103600;-77
2022/09/27 03:40:31;;;;;;;12.63;11.57;;;;;;;21.41;47.19;93965.22;6161591;28;104099;-80
2022/09/27 03:43:35;;;;;;;13.47;12.33;;;;;;;21.45;47.21;93958.91;6148826;28;106524;-78
2022/09/27 03:46:38;;;;;;;13.60;12.30;;;;;;;21.52;47.82;93958.41;6146943;28;103887;-79
2022/09/27 03:49:42;;;;;;;12.33;11.37;;;;;;;21.64;49.26;93954.97;6145352;28;103353;-79
2022/09/27 03:52:46;;;;;;;10.80;9.90;;;;;;;21.63;49.35;93951.53;6163109;28;103077;-79
2022/09/27 03:55:49;;;;;;;11.53;10.53;;;;;;;21.61;49.55;93961.72;6157295;28;104248;-78
2022/09/27 03:58:53;;;;;;;12.30;11.20;;;;;;;21.59;49.01;93982.59;6163642;28;103106;-78
2022/09/27 04:01:56;;;;;;;11.90;10.90;;;;;;;21.55;49.11;93986.25;6161013;28;103083;-79
2022/09/27 04:04:59;;;;;;;12.17;11.13;;;;;;;21.57;49.29;93965.38;6158688;28;103896;-79
2022/09/27 04:08:05;;;;;;;11.47;10.57;;;;;;;21.61;49.52;93984.91;6159610;28;103798;-80
2022/09/27 04:11:09;;;;;;;10.70;9.80;;;;;;;21.65;50.13;93970.63;6160505;28;103221;-79
2022/09/27 04:14:12;;;;;;;10.03;9.33;;;;;;;21.68;49.82;93969.19;6160880;28;104391;-79
2022/09/27 04:17:16;;;;;;;10.13;9.10;;;;;;;21.69;50.04;93960.09;6156501;28;103377;-80
2022/09/27 04:20:19;;;;;;;8.73;8.03;;;;;;;21.69;49.77;93968.09;6164173;28;103242;-79
2022/09/27 04:23:23;;;;;;;9.57;8.77;;;;;;;21.53;51.13;93962.63;6163615;28;105525;-79
2022/09/27 04:26:31;;;;;;;8.60;7.90;;;;;;;21.29;51.07;93933.25;6164538;28;103785;-80
2022/09/27 04:29:35;;;;;;;8.43;7.73;;;;;;;21.39;50.44;93967.44;6156976;28;104003;-81
2022/09/27 04:32:41;;;;;;;7.90;7.20;;;;;;;21.36;50.67;93968.88;6165997;28;103103;-80
2022/09/27 04:39:09;;;;;;;8.63;7.93;;;;;;;21.37;50.97;93964.31;6161559;28;103367;-79
2022/09/27 04:42:12;;;;;;;8.80;8.00;;;;;;;21.36;50.67;93976.84;6158718;28;103718;-79
2022/09/27 04:45:16;;;;;;;8.70;7.90;;;;;;;21.39;50.31;93965.56;6163786;28;102877;-80
2022/09/27 04:48:19;;;;;;;8.50;7.70;;;;;;;21.34;51.20;93973.75;6163642;28;103062;-79
2022/09/27 04:51:23;;;;;;;8.80;8.03;;;;;;;21.36;51.00;93973.41;6156506;28;103314;-79
2022/09/27 04:54:28;;;;;;;8.30;7.70;;;;;;;21.30;51.20;93980.81;6163632;28;104566;-79
2022/09/27 04:57:31;;;;;;;8.33;7.63;;;;;;;21.31;51.16;93990.34;6163656;28;104573;-78
2022/09/27 05:00:35;;;;;;;8.37;7.60;;;;;;;21.33;50.73;94001.44;6162228;28;103168;-80
2022/09/27 05:03:39;;;;;;;9.13;8.43;;;;;;;21.27;50.96;93986.00;6156686;28;103937;-80
2022/09/27 05:06:42;;;;;;;8.20;7.50;;;;;;;21.26;51.03;93979.91;6162700;28;105492;-79
2022/09/27 05:09:47;;;;;;;8.53;7.80;;;;;;;21.32;51.38;93991.13;6162721;28;103396;-80
2022/09/27 05:12:50;;;;;;;8.80;7.57;;;;;;;21.29;51.60;93984.56;6162658;28;103438;-80
2022/09/27 05:15:53;;;;;;;8.67;7.97;;;;;;;21.26;51.74;93985.22;6157499;28;103569;-82
2022/09/27 05:18:57;;;;;;;8.20;7.50;;;;;;;21.27;51.46;93983.34;6163078;28;104312;-80
2022/09/27 05:22:00;;;;;;;7.83;7.23;;;;;;;21.25;52.16;93967.72;6162422;28;103459;-76
2022/09/27 05:25:06;;;;;;;9.27;8.37;;;;;;;21.27;51.45;93970.03;6155914;28;103594;-78
2022/09/27 05:28:09;;;;;;;13.27;12.17;;;;;;;21.26;51.80;93963.16;6161009;28;103336;-76
2022/09/27 05:31:13;;;;;;;10.97;10.07;;;;;;;21.24;52.09;93954.72;6161484;28;103856;-78
2022/09/27 05:34:19;;;;;;;9.23;8.53;;;;;;;21.26;52.00;93979.91;6161269;28;103574;-77
2022/09/27 05:37:22;;;;;;;9.50;8.67;;;;;;;21.25;52.19;93959.72;6155683;28;103165;-77
2022/09/27 05:40:28;;;;;;;8.77;7.97;;;;;;;21.24;51.96;93979.47;6161881;28;104221;-78
2022/09/27 05:43:46;;;;;;;9.77;9.07;;;;;;;21.21;52.81;93958.84;6161289;28;105009;-78
2022/09/27 05:46:51;;;;;;;9.40;8.77;;;;;;;21.24;52.00;93986.66;6158620;28;103483;-78
2022/09/27 05:49:54;;;;;;;9.30;8.60;;;;;;;21.20;52.85;93978.56;6154429;28;106439;-80
2022/09/27 05:52:58;;;;;;;9.37;8.57;;;;;;;21.17;52.59;93957.91;6161940;28;103360;-78
2022/09/27 05:56:03;;;;;;;10.53;9.60;;;;;;;21.19;52.92;93985.75;6160870;28;104237;-77
2022/09/27 05:59:06;;;;;;;11.10;10.00;;;;;;;21.12;54.62;93980.16;6155446;28;103450;-77
2022/09/27 06:02:10;;;;;;;10.40;9.60;;;;;;;21.16;53.28;93956.34;6160702;28;103546;-77
2022/09/27 06:05:13;;;;;;;11.00;10.10;;;;;;;21.24;53.83;93979.47;6161328;28;103505;-76
2022/09/27 06:08:18;;;;;;;12.07;11.07;;;;;;;21.25;53.69;93973.03;6161148;28;105371;-77
2022/09/27 06:11:26;;;;;;;10.80;10.00;;;;;;;21.17;53.96;93960.56;6153756;28;104101;-78
2022/09/27 06:14:29;;;;;;;10.63;9.73;;;;;;;21.24;53.88;93968.81;6162692;28;103388;-79
2022/09/27 06:17:34;;;;;;;9.73;8.93;;;;;;;21.25;53.28;93966.94;6162056;28;105441;-78
2022/09/27 06:20:39;;;;;;;11.03;10.23;;;;;;;21.31;52.94;93963.72;6162476;28;106632;-78
2022/09/27 06:23:42;;;;;;;11.20;10.30;;;;;;;21.34;52.65;93954.31;6155909;28;102604;-77
2022/09/27 06:26:46;;;;;;;9.90;9.20;;;;;;;21.34;52.73;93951.66;6161669;28;103478;-79
2022/09/27 06:29:50;;;;;;;9.80;9.10;;;;;;;21.31;52.97;93949.66;6164730;28;103548;-78
2022/09/27 06:32:57;;;;;;;9.60;8.80;;;;;;;21.29;52.87;93946.53;6162415;28;106328;-78
2022/09/27 06:36:01;;;;;;;9.20;8.50;;;;;;;21.23;52.93;93951.31;6160913;28;103249;-78
2022/09/27 06:39:05;;;;;;;10.40;9.43;;;;;;;21.22;53.03;93963.03;6164759;28;103474;-78
2022/09/27 06:42:09;;;;;;;9.30;8.60;;;;;;;21.22;53.51;93963.03;6165119;28;103583;-78
2022/09/27 06:45:13;;;;;;;10.00;9.10;;;;;;;21.19;53.07;93963.69;6158875;28;103720;-78
2022/09/27 06:48:16;;;;;;;10.17;9.37;;;;;;;21.16;53.03;93951.81;6164258;28;105112;-77
2022/09/27 06:51:20;;;;;;;9.90;9.00;;;;;;;21.23;53.39;93961.16;6164253;28;103041;-78
2022/09/27 06:54:23;;;;;;;10.00;9.20;;;;;;;21.24;53.42;93965.38;6162851;28;103444;-78
2022/09/27 07:00:50;;;;;;;9.33;8.63;;;;;;;21.23;52.79;93969.16;6164740;28;103685;-80
2022/09/27 07:03:53;;;;;;;9.20;8.50;;;;;;;21.25;52.82;93972.25;6164011;28;103059;-78
2022/09/27 07:06:58;;;;;;;9.50;8.80;;;;;;;21.20;53.35;93954.63;6160973;28;104350;-77
2022/09/27 07:10:01;;;;;;;9.10;8.50;;;;;;;21.24;52.96;93960.84;6160828;28;103363;-78
2022/09/27 07:13:12;;;;;;;8.60;7.90;;;;;;;21.23;52.96;93964.59;6163467;28;103558;-79
2022/09/27 07:16:15;;;;;;;8.70;8.00;;;;;;;21.23;53.11;93966.47;6164062;28;104716;-78
2022/09/27 07:19:19;;;;;;;9.20;8.40;;;;;;;21.20;53.40;93966.03;6157650;28;106899;-78
2022/09/27 07:22:23;;;;;;;8.73;8.03;;;;;;;21.19;53.17;93953.84;6164165;28;102866;-78
2022/09/27 07:25:26;;;;;;;9.73;8.93;;;;;;;21.12;53.56;93936.81;6163359;28;103966;-76
2022/09/27 07:28:31;;;;;;;10.37;9.57;;;;;;;21.18;53.64;93951.50;6163956;28;103164;-78
2022/09/27 07:31:35;;;;;;;8.90;8.20;;;;;;;21.19;53.04;93950.41;6156304;28;103776;-79
2022/09/27 07:34:38;;;;;;;9.57;8.67;;;;;;;21.20;53.82;93954.63;6163938;28;104343;-77
2022/09/27 07:37:43;;;;;;;9.70;8.87;;;;;;;21.22;53.66;93963.03;6163848;28;103447;-79
2022/09/27 07:40:48;;;;;;;8.80;8.10;;;;;;;21.16;53.39;93953.69;6159149;28;107368;-78
2022/09/27 07:43:56;;;;;;;9.10;8.23;;;;;;;21.17;53.28;93974.66;6159644;28;102922;-78
2022/09/27 07:46:59;;;;;;;8.50;7.77;;;;;;;21.20;53.55;93984.66;6162553;28;104271;-79
2022/09/27 07:50:02;;;;;;;8.27;7.67;;;;;;;21.21;53.20;93990.75;6162073;28;103565;-76
2022/09/27 07:53:06;;;;;;;9.00;8.10;;;;;;;21.18;53.80;93984.22;6155791;28;103285;-79
2022/09/27 07:56:09;;;;;;;8.53;7.83;;;;;;;21.19;53.57;93984.97;6162354;28;103273;-76
2022/09/27 07:59:13;;;;;;;8.07;7.30;;;;;;;21.16;53.37;93981.06;6163044;28;103570;-78
2022/09/27 08:02:18;;;;;;;8.20;7.50;;;;;;;21.19;53.74;93987.66;6162840;28;103195;-77
2022/09/27 08:05:22;;;;;;;8.63;7.80;;;;;;;21.18;53.73;93978.09;6155131;28;103521;-76
2022/09/27 08:08:25;;;;;;;8.10;7.50;;;;;;;21.18;53.94;93973.56;6162967;28;105896;-77
2022/09/27 08:11:29;;;;;;;8.20;7.50;;;;;;;21.17;53.82;93987.16;6162616;28;106937;-77
2022/09/27 08:14:34;;;;;;;7.67;7.07;;;;;;;21.20;53.40;93950.06;6160332;28;105537;-77
2022/09/27 08:17:49;;;;;;;8.27;7.57;;;;;;;21.23;53.83;93950.53;6160990;28;103499;-79
2022/09/27 08:20:56;;;;;;;7.57;7.07;;;;;;;21.24;53.48;93952.84;6168618;28;102784;-78
2022/09/27 08:24:00;;;;;;;9.43;8.73;;;;;;;21.25;54.00;93950.97;6162748;28;103729;-78
2022/09/27 08:27:04;;;;;;;8.77;7.90;;;;;;;21.25;54.02;93945.66;6155003;28;105046;-78
2022/09/27 08:30:15;;;;;;;10.50;9.60;;;;;;;21.07;56.09;93984.91;6163216;28;107097;-79
2022/09/27 08:33:18;;;;;;;11.60;10.50;;;;;;;20.79;57.75;93964.09;6161906;28;104261;-78
2022/09/27 08:36:22;;;;;;;11.00;9.90;;;;;;;20.95;56.37;93936.94;6161775;28;103473;-80
2022/09/27 08:39:26;;;;;;;12.37;11.07;;;;;;;21.10;55.36;93939.81;6154875;28;103450;-78
2022/09/27 08:42:39;;;;;;;11.27;10.27;;;;;;;21.17;54.35;93929.44;6162479;28;103762;-78
2022/09/27 08:45:56;;;;;;;10.07;9.20;;;;;;;21.21;55.05;93942.88;6162000;28;103124;-80
2022/09/27 08:49:10;;;;;;;11.00;10.10;;;;;;;21.19;54.90;93907.84;6158424;28;105204;-80
2022/09/27 08:52:19;;;;;;;11.00;10.00;;;;;;;21.23;54.92;93927.34;6160374;28;106317;-80
2022/09/27 08:55:29;;;;;;;12.80;11.60;;;;;;;21.24;55.01;93942.22;6161990;28;103737;-80
2022/09/27 08:58:35;;;;;;;13.27;12.27;;;;;;;21.23;54.88;93921.25;6162273;28;103811;-79
2022/09/27 09:01:41;;;;;;;13.53;12.23;;;;;;;21.25;55.11;93927.81;6155340;28;104125;-79
2022/09/27 09:04:49;;;;;;;11.70;10.80;;;;;;;21.25;54.69;93945.66;6162399;28;103072;-79
2022/09/27 09:08:16;;;;;;;11.23;10.13;;;;;;;21.24;55.13;93938.78;6161991;28;103478;-78
2022/09/27 09:15:11;;;;;;;11.67;10.57;;;;;;;21.27;54.81;93890.22;6160897;28;103535;-79
2022/09/27 09:18:29;;;;;;;10.67;9.87;;;;;;;21.31;54.75;93902.53;6161557;28;104066;-78
2022/09/27 09:21:40;;;;;;;11.03;10.13;;;;;;;21.30;54.69;93908.19;6161720;28;103425;-78
2022/09/27 09:25:00;;;;;;;10.17;9.43;;;;;;;21.31;54.84;93913.19;6154955;28;104531;-79
2022/09/27 09:28:16;;;;;;;10.27;9.47;;;;;;;21.31;54.49;93923.03;6161825;28;104771;-79
2022/09/27 09:31:29;;;;;;;10.60;9.57;;;;;;;21.25;54.53;93914.50;6161739;28;103422;-79
2022/09/27 09:34:38;;;;;;;10.60;9.70;;;;;;;21.32;54.17;93920.06;6157956;28;103913;-80
2022/09/27 09:37:46;;;;;;;9.83;8.97;;;;;;;21.32;54.38;93932.56;6161763;28;103527;-80
2022/09/27 09:40:56;;;;;;;10.53;9.47;;;;;;;21.32;55.02;93908.63;6161849;28;103281;-79
2022/09/27 09:44:04;;;;;;;9.80;8.93;;;;;;;21.30;55.09;93898.31;6162601;28;103457;-79
2022/09/27 09:47:19;;;;;;;10.87;9.97;;;;;;;21.31;54.89;93896.44;6154756;28;104094;-79
2022/09/27 09:50:27;;;;;;;10.67;9.77;;;;;;;21.33;54.41;93907.53;6161709;28;104600;-80
2022/09/27 09:53:40;;;;;;;10.80;9.90;;;;;;;21.32;54.75;93911.28;6161385;28;107607;-80
2022/09/27 09:56:48;;;;;;;10.97;9.80;;;;;;;21.29;56.03;93904.75;6158491;28;104297;-79
2022/09/27 09:59:59;;;;;;;11.07;10.17;;;;;;;21.31;55.62;93915.06;6158929;28;103129;-79
2022/09/27 10:03:03;;;;;;;10.10;9.10;;;;;;;21.29;55.16;93901.31;6162921;28;107862;-80
2022/09/27 10:06:10;;;;;;;9.97;9.17;;;;;;;21.30;55.57;93889.56;6167102;28;104930;-78
2022/09/27 10:09:15;;;;;;;9.70;8.90;;;;;;;21.31;55.28;93901.75;6158431;28;103678;-80
2022/09/27 10:12:19;;;;;;;9.30;8.50;;;;;;;21.31;55.11;93902.53;6165997;28;103506;-79
2022/09/27 10:15:23;;;;;;;9.83;9.00;;;;;;;21.31;55.68;93893.78;6165807;28;103513;-80
2022/09/27 10:18:27;;;;;;;9.80;8.90;;;;;;;21.30;55.83;93908.97;6166377;28;106214;-80
2022/09/27 10:21:34;;;;;;;10.33;9.47;;;;;;;21.29;55.93;93903.97;6158455;28;102868;-80
2022/09/27 10:24:54;;;;;;;9.17;8.43;;;;;;;21.26;56.00;93876.13;6165664;28;105628;-80
2022/09/27 10:27:57;;;;;;;8.80;8.13;;;;;;;21.31;55.53;93881.25;6166389;28;103351;-80
2022/09/27 10:31:02;;;;;;;9.30;8.47;;;;;;;21.30;56.05;93863.72;6161342;28;103265;-79
2022/09/27 10:34:06;;;;;;;10.47;8.20;;;;;;;21.27;56.33;93875.03;6163715;28;103267;-80
2022/09/27 10:37:19;;;;;;;10.10;9.10;;;;;;;21.30;56.57;93898.31;6164870;28;103504;-80
2022/09/27 10:40:29;;;;;;;10.27;9.37;;;;;;;21.30;56.29;93886.91;6164650;28;104569;-80
2022/09/27 10:43:34;;;;;;;9.17;8.40;;;;;;;21.32;56.13;93860.72;6157902;28;105138;-79
2022/09/27 10:46:38;;;;;;;9.20;8.47;;;;;;;21.31;56.34;93905.19;6164932;28;103517;-79
2022/09/27 10:49:42;;;;;;;9.30;8.50;;;;;;;21.30;56.59;93922.25;6164465;28;103258;-79
2022/09/27 10:52:47;;;;;;;8.80;8.10;;;;;;;21.31;55.67;93867.94;6163841;28;103064;-79
2022/09/27 10:55:52;;;;;;;9.60;8.60;;;;;;;21.29;56.79;93866.72;6156712;28;104153;-80
2022/09/27 10:58:58;;;;;;;8.97;8.10;;;;;;;21.31;57.08;93854.63;6164365;28;103062;-81
2022/09/27 11:02:03;;;;;;;8.37;7.60;;;;;;;21.29;56.26;93824.94;6164441;28;106203;-81
2022/09/27 11:05:10;;;;;;;9.53;8.53;;;;;;;21.32;56.59;93818.94;6160187;28;104692;-81
2022/09/27 11:08:30;;;;;;;8.23;7.53;;;;;;;21.31;56.75;93827.25;6163266;28;106158;-81
2022/09/27 11:11:33;;;;;;;8.80;8.10;;;;;;;21.29;56.84;93826.81;6163850;28;103584;-80
2022/09/27 11:14:37;;;;;;;9.23;8.43;;;;;;;21.29;57.25;93830.25;6163846;28;103456;-80
2022/09/27 11:17:51;;;;;;;8.17;7.47;;;;;;;21.31;57.19;93812.06;6157997;28;104101;-80
2022/09/27 11:21:05;;;;;;;7.87;7.27;;;;;;;21.29;57.43;93816.94;6164488;28;103373;-80
2022/09/27 11:24:25;;;;;;;10.57;9.57;;;;;;;21.31;57.21;93822.72;6163775;28;103708;-80
2022/09/27 11:27:38;;;;;;;12.40;11.40;;;;;;;21.33;57.15;93828.47;6160230;28;103163;-79
2022/09/27 11:30:47;;;;;;;10.13;9.30;;;;;;;21.33;56.23;93823.16;6160439;28;104165;-80
2022/09/27 11:34:14;;;;;;;10.10;9.30;;;;;;;21.34;56.28;93789.34;6163241;28;104802;-79
2022/09/27 11:37:29;;;;;;;11.27;10.37;;;;;;;21.31;57.12;93787.34;6163207;28;104344;-80
2022/09/27 11:40:53;;;;;;;8.83;8.23;;;;;;;21.32;55.43;93802.19;6156471;28;103071;-79
2022/09/27 11:44:13;;;;;;;10.00;9.10;;;;;;;21.35;56.26;93814.88;6163922;28;102865;-79
2022/09/27 11:47:23;;;;;;;9.30;8.50;;;;;;;21.33;57.06;93809.84;6163958;28;103267;-79
2022/09/27 11:50:49;;;;;;;9.43;8.63;;;;;;;21.34;56.17;93779.50;6161611;28;103413;-78
2022/09/27 11:54:05;;;;;;;9.00;8.40;;;;;;;21.36;56.49;93782.59;6161664;28;103376;-80
2022/09/27 11:57:20;;;;;;;9.10;8.40;;;;;;;21.36;56.25;93793.25;6166340;28;106371;-79
2022/09/27 12:00:32;;;;;;;9.77;8.97;;;;;;;21.38;56.47;93783.03;6159945;28;102523;-78
2022/09/27 12:04:12;;;;;;;10.57;9.60;;;;;;;21.39;55.66;93750.00;6156288;28;104724;-78
2022/09/27 12:07:24;;;;;;;8.73;8.03;;;;;;;21.41;55.63;93761.09;6151113;28;103434;-79
2022/09/27 12:10:27;;;;;;;10.27;9.40;;;;;;;21.41;55.77;93784.25;6163051;28;104525;-80
2022/09/27 12:13:39;;;;;;;10.30;9.30;;;;;;;21.41;55.68;93758.41;6157779;28;104584;-79
2022/09/27 12:16:44;;;;;;;9.37;8.67;;;;;;;21.43;55.95;93748.22;6163358;28;103501;-79
2022/09/27 12:19:52;;;;;;;11.60;10.50;;;;;;;21.41;55.79;93754.97;6162638;28;103304;-79
2022/09/27 12:23:01;;;;;;;12.07;10.87;;;;;;;21.44;56.10;93756.97;6162475;28;103435;-79
2022/09/27 12:26:08;;;;;;;10.83;9.70;;;;;;;21.47;55.51;93762.41;6156031;28;103461;-79
2022/09/27 12:29:19;;;;;;;14.07;11.17;;;;;;;21.46;55.96;93728.91;6162904;28;103478;-80
2022/09/27 12:32:26;;;;;;;15.20;11.10;;;;;;;21.42;55.88;93693.44;6162181;28;103610;-80
2022/09/27 12:35:33;;;;;;;16.23;12.87;;;;;;;21.44;55.57;93701.88;6159754;28;104915;-79
2022/09/27 12:38:42;;;;;;;14.90;12.03;;;;;;;21.47;56.03;93705.75;6159438;28;103837;-80
2022/09/27 12:41:55;;;;;;;13.87;12.27;;;;;;;21.48;55.80;93702.75;6163263;28;102739;-80
2022/09/27 12:45:00;;;;;;;13.07;11.40;;;;;;;21.42;55.58;93680.13;6162619;28;103095;-80
2022/09/27 12:48:13;;;;;;;13.20;11.80;;;;;;;21.45;56.23;93684.78;6156696;28;103648;-80
2022/09/27 12:51:19;;;;;;;14.20;11.10;;;;;;;21.47;56.02;93682.56;6162567;28;104259;-80
2022/09/27 12:54:45;;;;;;;13.60;11.33;;;;;;;21.48;56.12;93678.78;6162863;28;103453;-80
2022/09/27 12:58:09;;;;;;;14.40;11.83;;;;;;;21.46;56.25;93681.00;6162299;28;104222;-80
2022/09/27 13:01:27;;;;;;;14.10;10.80;;;;;;;21.48;55.93;93678.00;6158458;28;105945;-79
2022/09/27 13:04:52;;;;;;;14.47;10.80;;;;;;;21.48;56.13;93678.78;6162299;28;105479;-78
2022/09/27 13:08:22;;;;;;;13.37;11.23;;;;;;;21.49;55.72;93677.69;6160757;28;104264;-78
2022/09/27 13:11:36;;;;;;;13.20;10.57;;;;;;;21.52;55.93;93695.66;6155704;28;106965;-80
2022/09/27 13:14:44;;;;;;;15.23;11.93;;;;;;;21.55;56.13;93693.44;6161487;28;103178;-81
2022/09/27 13:17:58;;;;;;;12.10;11.00;;;;;;;21.56;56.10;93674.47;6161899;28;104065;-78
2022/09/27 13:21:03;;;;;;;16.27;12.03;;;;;;;21.52;56.02;93674.38;6158696;28;103957;-81
2022/09/27 13:24:45;;;;;;;15.27;11.37;;;;;;;21.58;55.70;93679.44;6158408;28;105576;-79
2022/09/27 13:27:48;;;;;;;13.70;12.30;;;;;;;21.60;56.26;93670.00;6162425;28;106654;-79
2022/09/27 13:30:52;;;;;;;12.33;11.13;;;;;;;21.59;55.77;93665.03;6163236;28;106883;-80
2022/09/27 13:33:56;;;;;;;12.60;11.13;;;;;;;21.59;55.46;93663.16;6155927;28;102705;-78
2022/09/27 13:37:20;;;;;;;16.80;13.40;;;;;;;21.64;55.37;93656.81;6161672;28;102865;-79
2022/09/27 13:40:31;;;;;;;14.67;13.20;;;;;;;21.61;55.24;93652.94;6168082;28;104144;-78
2022/09/27 13:44:03;;;;;;;17.03;14.57;;;;;;;21.65;55.69;93658.34;6164257;28;104331;-79
2022/09/27 13:47:24;;;;;;;17.73;15.77;;;;;;;21.64;55.28;93667.44;6164475;28;105566;-79
2022/09/27 13:50:38;;;;;;;18.57;16.60;;;;;;;21.62;55.36;93675.00;6166219;28;103412;-80
2022/09/27 13:53:45;;;;;;;19.63;15.50;;;;;;;21.66;54.89;93683.84;6166166;28;103613;-79
2022/09/27 13:56:54;;;;;;;17.47;15.77;;;;;;;21.63;54.76;93684.53;6159676;28;103429;-79
2022/09/27 14:00:03;;;;;;;20.27;17.67;;;;;;;21.64;54.66;93694.06;6166474;28;104108;-79
2022/09/27 14:03:48;;;;;;;18.60;16.60;;;;;;;21.64;54.48;93680.75;6166160;28;103349;-79
2022/09/27 14:06:57;;;;;;;18.97;16.93;;;;;;;21.66;54.61;93670.56;6161614;28;106349;-81
2022/09/27 14:10:00;;;;;;;19.37;17.30;;;;;;;21.67;54.51;93674.75;6165727;28;103219;-79
2022/09/27 14:13:06;;;;;;;19.63;17.53;;;;;;;21.66;54.64;93671.31;6165236;28;106098;-80
2022/09/27 14:16:15;;;;;;;19.40;17.20;;;;;;;21.66;54.07;93684.63;6165840;28;104213;-79
2022/09/27 14:19:20;;;;;;;18.70;16.80;;;;;;;21.67;54.42;93674.75;6159712;28;105174;-78
2022/09/27 14:22:26;;;;;;;20.20;17.60;;;;;;;21.63;54.04;93664.00;6165431;28;102791;-79
2022/09/27 14:25:29;;;;;;;19.80;17.13;;;;;;;21.64;53.84;93657.56;6166187;28;107421;-81
2022/09/27 14:28:41;;;;;;;19.00;17.10;;;;;;;21.66;53.96;93667.88;6166386;28;104211;-80
2022/09/27 14:31:47;;;;;;;17.97;16.10;;;;;;;21.65;54.03;93672.44;6162230;28;103596;-79
2022/09/27 14:37:22;;;;;;;17.43;15.70;;;;;;;21.66;54.06;93673.22;6168715;28;103555;-80